Terminal Aerodrome Forecast
Issued by NWS

Home | Current Version | Previous Version | Text Only | Print | Product List | Glossary Off
Versions: 1 2 3 4 5 6 7 8 9 10 11 12 13 14 15 16 17 18

648
FTUS43 KGRB 292320
TAFCWA
TAF
KCWA 292320Z 3000/3024 27010G17KT P6SM BKN045
     FM300200 26006KT P6SM SCT045
     FM300500 26004KT P6SM FEW200
      TEMPO 3007/3011 3SM BR
     FM301600 29008KT P6SM FEW250
      AMD LTD TO CLD VIS AND WIND 3003/3011=

USA.gov is the U.S. government's official web portal to all federal, state and local government web resources and services.